Time;durP1;ratioP1;P1;durP2;ratioP2;P2;SDS_P1;SDS_P2;PMS_P1;PMS_P2;Temp;Humidity;BMP_temperature;BMP_pressure;BME280_temperature;BME280_humidity;BME280_pressure;Samples;Min_cycle;Max_cycle;Signal;HPM_P1;HPM_P2
2023/02/17 00:01:51;;;;;;;62.20;33.65;;;8.10;99.90;;;;;;5047529;28;20029;-48
2023/02/17 00:04:17;;;;;;;59.65;34.83;;;8.20;99.90;;;;;;5048079;28;20036;-52
2023/02/17 00:06:42;;;;;;;61.78;32.92;;;8.10;99.90;;;;;;5047157;28;20029;-47
2023/02/17 00:09:08;;;;;;;61.08;32.47;;;8.20;99.90;;;;;;5047596;28;20554;-47
2023/02/17 00:11:33;;;;;;;64.78;34.92;;;8.00;99.90;;;;;;5047866;28;20024;-47
2023/02/17 00:13:59;;;;;;;64.05;35.42;;;8.00;99.90;;;;;;5048147;28;20029;-47
2023/02/17 00:16:26;;;;;;;62.42;34.55;;;8.00;99.90;;;;;;5048089;28;20036;-49
2023/02/17 00:18:54;;;;;;;58.28;31.48;;;8.00;99.90;;;;;;5048956;28;20043;-49
2023/02/17 00:21:21;;;;;;;58.70;33.78;;;8.00;99.90;;;;;;5047877;28;20037;-48
2023/02/17 00:23:48;;;;;;;59.15;31.60;;;8.00;99.90;;;;;;5048145;28;20025;-49
2023/02/17 00:26:14;;;;;;;71.53;34.63;;;8.10;99.90;;;;;;5047866;28;20021;-47
2023/02/17 00:28:40;;;;;;;54.92;33.10;;;8.10;99.90;;;;;;5063227;28;20325;-47
2023/02/17 00:31:09;;;;;;;61.53;33.55;;;8.10;99.90;;;;;;5047669;28;20071;-47
2023/02/17 00:33:35;;;;;;;58.13;33.13;;;8.10;99.90;;;;;;5047886;28;20021;-46
2023/02/17 00:36:05;;;;;;;54.60;30.50;;;8.20;99.90;;;;;;5047890;28;20043;-48
2023/02/17 00:38:30;;;;;;;40.65;23.33;;;8.20;99.90;;;;;;5062789;28;20029;-47
2023/02/17 00:40:56;;;;;;;60.72;31.67;;;8.30;99.90;;;;;;5047693;28;20617;-47
2023/02/17 00:43:21;;;;;;;56.53;31.58;;;8.40;99.90;;;;;;5047412;28;20021;-46
2023/02/17 00:45:47;;;;;;;53.13;30.23;;;8.40;99.90;;;;;;5046599;28;20024;-47
2023/02/17 00:48:12;;;;;;;61.33;30.98;;;8.40;99.90;;;;;;5047953;28;20025;-47
2023/02/17 00:50:38;;;;;;;54.40;29.48;;;8.40;99.90;;;;;;5047361;28;20017;-47
2023/02/17 00:53:03;;;;;;;52.40;29.73;;;8.40;99.90;;;;;;5047139;28;20017;-46
2023/02/17 00:55:29;;;;;;;56.22;30.08;;;8.60;99.90;;;;;;5048103;28;20464;-47
2023/02/17 00:57:54;;;;;;;49.70;29.42;;;8.60;99.90;;;;;;5047877;28;20021;-47
2023/02/17 01:00:20;;;;;;;53.58;28.92;;;8.60;99.90;;;;;;5047931;28;20021;-47
2023/02/17 01:02:46;;;;;;;47.60;27.00;;;8.60;99.90;;;;;;5048385;28;20053;-46
2023/02/17 01:05:11;;;;;;;47.63;27.60;;;8.60;99.90;;;;;;5050980;28;20031;-46
2023/02/17 01:07:37;;;;;;;48.67;27.20;;;8.60;99.90;;;;;;5050678;28;20051;-47
2023/02/17 01:10:06;;;;;;;48.63;27.88;;;8.70;99.90;;;;;;5051475;28;20088;-47
2023/02/17 01:12:32;;;;;;;47.78;27.23;;;8.70;99.90;;;;;;5050602;28;20067;-47
2023/02/17 01:14:57;;;;;;;45.58;28.02;;;8.70;99.90;;;;;;5051401;28;20024;-46
2023/02/17 01:17:23;;;;;;;46.70;27.90;;;8.70;99.90;;;;;;5051208;28;20418;-48
2023/02/17 01:19:48;;;;;;;46.35;28.08;;;8.70;99.90;;;;;;5050914;28;20033;-48
2023/02/17 01:22:14;;;;;;;49.00;27.77;;;8.70;99.90;;;;;;5050127;28;20063;-47
2023/02/17 01:24:39;;;;;;;47.75;27.23;;;8.80;99.90;;;;;;5066672;28;20078;-47
2023/02/17 01:27:05;;;;;;;42.15;25.15;;;8.80;99.90;;;;;;5051157;28;20021;-46
2023/02/17 01:29:30;;;;;;;44.22;26.58;;;8.90;99.90;;;;;;5051146;28;20017;-48
2023/02/17 01:31:56;;;;;;;48.45;26.90;;;8.90;99.90;;;;;;5050368;28;20017;-47
2023/02/17 01:34:21;;;;;;;40.30;24.90;;;8.90;99.90;;;;;;5050655;28;20072;-48
2023/02/17 01:36:47;;;;;;;41.13;24.65;;;8.90;99.90;;;;;;5050575;28;20021;-47
2023/02/17 01:39:14;;;;;;;42.90;25.33;;;8.90;99.90;;;;;;5050230;28;20383;-46
2023/02/17 01:41:39;;;;;;;43.38;25.30;;;8.90;99.90;;;;;;5050426;28;20013;-46
2023/02/17 01:44:06;;;;;;;49.72;27.77;;;8.90;99.90;;;;;;5050998;28;20452;-48
2023/02/17 01:46:36;;;;;;;45.42;26.55;;;8.90;99.90;;;;;;5050877;28;20104;-46
2023/02/17 01:49:09;;;;;;;45.65;26.42;;;8.90;99.90;;;;;;5049281;28;20060;-47
2023/02/17 01:51:37;;;;;;;41.08;24.70;;;8.90;99.90;;;;;;5050156;28;20056;-49
2023/02/17 01:54:11;;;;;;;40.88;24.35;;;8.90;99.90;;;;;;5050356;28;20070;-46
2023/02/17 01:56:39;;;;;;;45.72;25.55;;;8.90;99.90;;;;;;5066166;28;20021;-47
2023/02/17 01:59:13;;;;;;;42.72;23.98;;;8.90;99.90;;;;;;5048011;28;20017;-50
2023/02/17 02:01:39;;;;;;;46.17;25.05;;;8.90;99.90;;;;;;5050036;28;20492;-46
2023/02/17 02:04:06;;;;;;;41.83;24.38;;;8.90;99.90;;;;;;5050473;28;20032;-47
2023/02/17 02:06:35;;;;;;;39.88;24.42;;;8.90;99.90;;;;;;5050069;28;20020;-47
2023/02/17 02:09:07;;;;;;;40.20;25.15;;;8.90;99.90;;;;;;5048284;28;20039;-51
2023/02/17 02:11:34;;;;;;;39.80;23.67;;;8.90;99.90;;;;;;5064851;28;20484;-50
2023/02/17 02:14:00;;;;;;;38.58;23.30;;;9.00;99.90;;;;;;5048602;28;20055;-47
2023/02/17 02:16:43;;;;;;;43.63;25.38;;;9.00;99.90;;;;;;5049815;28;20021;-49
2023/02/17 02:19:39;;;;;;;38.58;23.88;;;9.00;99.90;;;;;;5047516;28;20040;-47
2023/02/17 02:22:32;;;;;;;37.70;24.38;;;8.90;99.90;;;;;;5061969;28;20024;-47
2023/02/17 02:25:00;;;;;;;41.53;23.42;;;8.90;99.90;;;;;;5048783;28;20094;-50
2023/02/17 02:28:03;;;;;;;38.40;23.40;;;9.00;99.90;;;;;;5047090;28;20096;-47
2023/02/17 02:30:54;;;;;;;36.88;23.25;;;9.00;99.90;;;;;;5030811;28;20029;-47
2023/02/17 02:33:25;;;;;;;;;;;9.00;99.90;;;;;;5064478;28;20453;-47
2023/02/17 02:36:12;;;;;;;39.35;22.48;;;9.00;99.90;;;;;;5064935;28;19912;-47
2023/02/17 02:38:58;;;;;;;36.00;22.15;;;9.00;99.90;;;;;;5049093;28;20427;-47
2023/02/17 02:41:30;;;;;;;39.20;22.63;;;9.10;99.90;;;;;;5046397;28;20032;-47
2023/02/17 02:43:55;;;;;;;38.65;23.45;;;9.10;99.90;;;;;;5065048;28;20172;-47
2023/02/17 02:46:21;;;;;;;37.70;24.42;;;9.10;99.90;;;;;;5049318;28;20777;-46
2023/02/17 02:48:48;;;;;;;40.22;23.42;;;9.10;99.90;;;;;;5049343;28;20021;-46
2023/02/17 02:51:14;;;;;;;35.35;22.40;;;9.10;99.90;;;;;;5049306;28;20021;-47
2023/02/17 02:53:40;;;;;;;37.88;22.88;;;9.10;99.90;;;;;;5049334;28;20074;-47
2023/02/17 02:56:39;;;;;;;39.70;24.05;;;9.00;99.90;;;;;;5049031;28;20538;-46
2023/02/17 02:59:21;;;;;;;40.95;24.42;;;9.00;99.90;;;;;;5046688;28;20025;-46
2023/02/17 03:02:12;;;;;;;39.00;23.48;;;9.10;99.90;;;;;;5062050;28;20035;-47
2023/02/17 03:04:47;;;;;;;35.63;23.20;;;9.10;99.90;;;;;;5048498;28;20056;-48
2023/02/17 03:07:20;;;;;;;37.35;23.35;;;9.00;99.90;;;;;;5049231;28;20047;-47
2023/02/17 03:09:52;;;;;;;36.88;22.95;;;9.00;99.90;;;;;;5051875;28;20099;-47
2023/02/17 03:12:18;;;;;;;41.03;23.73;;;9.00;99.90;;;;;;5048438;28;20082;-47
2023/02/17 03:14:46;;;;;;;40.72;23.63;;;9.10;99.90;;;;;;5049084;28;20065;-47
2023/02/17 03:17:12;;;;;;;42.47;25.08;;;9.10;99.90;;;;;;5064684;28;20033;-47
2023/02/17 03:19:38;;;;;;;40.92;24.52;;;9.10;99.90;;;;;;5049150;28;20147;-47
2023/02/17 03:22:13;;;;;;;37.92;23.58;;;9.10;99.90;;;;;;5045586;28;20037;-47
2023/02/17 03:24:39;;;;;;;36.97;22.48;;;9.10;99.90;;;;;;5063546;28;20021;-50
2023/02/17 03:27:04;;;;;;;33.28;22.15;;;9.20;99.90;;;;;;5048277;28;20238;-46
2023/02/17 03:29:30;;;;;;;35.83;23.00;;;9.10;99.90;;;;;;5064528;28;20014;-46
2023/02/17 03:31:56;;;;;;;36.55;24.77;;;9.10;99.90;;;;;;5048244;28;20017;-47
2023/02/17 03:34:21;;;;;;;37.10;23.02;;;9.10;99.90;;;;;;5048627;28;20044;-46
2023/02/17 03:36:47;;;;;;;35.97;22.63;;;9.10;99.90;;;;;;5048584;28;20025;-47
2023/02/17 03:39:12;;;;;;;36.00;22.17;;;9.10;99.90;;;;;;5046520;28;20067;-48
2023/02/17 03:41:38;;;;;;;38.03;22.77;;;9.10;99.90;;;;;;5063739;28;20421;-49
2023/02/17 03:44:03;;;;;;;35.42;22.83;;;9.20;99.90;;;;;;5049025;28;20044;-50
2023/02/17 03:46:29;;;;;;;36.13;23.02;;;9.20;99.90;;;;;;5057684;28;20040;-48
2023/02/17 03:48:54;;;;;;;35.22;22.23;;;9.10;99.90;;;;;;5069239;28;20028;-47
2023/02/17 03:51:22;;;;;;;35.50;21.65;;;9.10;99.90;;;;;;5068680;28;20029;-51
2023/02/17 03:53:49;;;;;;;37.38;22.75;;;9.10;99.90;;;;;;5066959;28;20018;-47
2023/02/17 03:56:15;;;;;;;34.67;22.05;;;9.10;99.90;;;;;;5068729;28;20028;-47
2023/02/17 03:58:41;;;;;;;31.65;21.27;;;9.20;99.90;;;;;;5068786;28;20069;-48
2023/02/17 04:01:08;;;;;;;34.97;23.15;;;9.20;99.90;;;;;;5068051;28;20025;-48
2023/02/17 04:03:34;;;;;;;31.08;20.73;;;9.30;99.90;;;;;;5068762;28;20021;-48
2023/02/17 04:06:00;;;;;;;35.88;22.38;;;9.30;99.90;;;;;;5068703;28;20479;-47
2023/02/17 04:08:25;;;;;;;34.70;21.10;;;9.30;99.90;;;;;;5057350;28;20028;-50
2023/02/17 04:10:56;;;;;;;32.83;21.55;;;9.30;99.90;;;;;;5050969;28;20021;-46
2023/02/17 04:13:22;;;;;;;35.40;20.88;;;9.30;99.90;;;;;;5048939;28;20365;-47
2023/02/17 04:15:48;;;;;;;31.55;20.13;;;9.30;99.90;;;;;;5048762;28;20033;-49
2023/02/17 04:18:14;;;;;;;29.90;20.10;;;9.30;99.90;;;;;;5063920;28;20110;-47
2023/02/17 04:20:40;;;;;;;34.65;20.52;;;9.40;99.90;;;;;;5048564;28;20412;-46
2023/02/17 04:23:05;;;;;;;29.25;19.98;;;9.30;99.90;;;;;;5048342;28;20051;-47
2023/02/17 04:25:35;;;;;;;30.23;19.77;;;9.30;99.90;;;;;;5048528;28;20029;-48
2023/02/17 04:28:02;;;;;;;30.88;19.60;;;9.40;99.90;;;;;;5063994;28;20036;-50
2023/02/17 04:30:27;;;;;;;30.42;20.15;;;9.40;99.90;;;;;;5048505;28;20032;-47
2023/02/17 04:32:53;;;;;;;28.38;20.17;;;9.30;99.90;;;;;;5045790;28;20017;-46
2023/02/17 04:35:18;;;;;;;27.75;20.08;;;9.40;99.90;;;;;;5048454;28;20523;-48
2023/02/17 04:37:44;;;;;;;31.98;21.08;;;9.40;99.90;;;;;;5048970;28;20036;-48
2023/02/17 04:40:10;;;;;;;32.88;20.70;;;9.40;99.90;;;;;;5051328;28;20014;-47
2023/02/17 04:42:36;;;;;;;34.17;20.48;;;9.40;99.90;;;;;;5051197;28;20116;-48
2023/02/17 04:45:05;;;;;;;29.88;19.70;;;9.40;99.90;;;;;;5051731;28;20480;-49
2023/02/17 04:47:31;;;;;;;30.63;19.50;;;9.40;99.90;;;;;;5052021;28;20549;-48
2023/02/17 04:49:56;;;;;;;29.85;19.23;;;9.40;99.90;;;;;;5066831;28;20017;-49
2023/02/17 04:52:22;;;;;;;28.02;18.75;;;9.50;99.90;;;;;;5051135;28;20021;-47
2023/02/17 04:54:47;;;;;;;29.63;18.95;;;9.50;99.90;;;;;;5049973;28;20032;-48
2023/02/17 04:57:13;;;;;;;28.92;19.48;;;9.50;99.90;;;;;;5049791;28;20089;-49
2023/02/17 04:59:38;;;;;;;24.90;18.17;;;9.50;99.90;;;;;;5051519;28;20033;-47
2023/02/17 05:02:05;;;;;;;27.55;18.42;;;9.50;99.90;;;;;;5048490;28;20033;-48
2023/02/17 05:04:30;;;;;;;24.67;17.33;;;9.60;99.90;;;;;;5048300;28;20051;-48
2023/02/17 05:06:56;;;;;;;26.45;18.00;;;9.50;99.90;;;;;;5050573;28;20660;-50
2023/02/17 05:09:21;;;;;;;26.58;17.83;;;9.50;99.90;;;;;;5050242;28;20029;-48
2023/02/17 05:11:47;;;;;;;25.85;17.42;;;9.50;99.90;;;;;;5050163;28;20040;-48
2023/02/17 05:14:12;;;;;;;25.58;17.65;;;9.60;99.90;;;;;;5065812;28;20119;-50
2023/02/17 05:16:38;;;;;;;26.05;17.17;;;9.50;99.90;;;;;;5050960;28;20498;-48
2023/02/17 05:19:04;;;;;;;27.55;18.92;;;9.50;99.90;;;;;;5050273;28;20462;-50
2023/02/17 05:21:30;;;;;;;26.35;18.13;;;9.60;99.90;;;;;;5050124;28;20025;-48
2023/02/17 05:23:55;;;;;;;28.02;18.15;;;9.60;99.90;;;;;;5050505;28;20040;-47
2023/02/17 05:26:21;;;;;;;26.45;18.38;;;9.50;99.90;;;;;;5050637;28;20032;-48
2023/02/17 05:28:47;;;;;;;24.00;17.20;;;9.60;99.90;;;;;;5050215;28;20029;-47
2023/02/17 05:31:12;;;;;;;29.65;19.73;;;9.60;99.90;;;;;;5049870;28;20021;-48
2023/02/17 05:33:38;;;;;;;24.15;16.88;;;9.60;99.90;;;;;;5049233;28;20029;-48
2023/02/17 05:36:06;;;;;;;26.60;17.45;;;9.60;99.90;;;;;;5050674;28;20056;-49
2023/02/17 05:38:32;;;;;;;24.40;17.33;;;9.70;99.90;;;;;;5050130;28;20025;-50
2023/02/17 05:40:58;;;;;;;24.42;18.23;;;9.60;99.90;;;;;;5049917;28;20031;-48
2023/02/17 05:43:24;;;;;;;25.75;17.60;;;9.60;99.90;;;;;;5049868;28;20628;-48
2023/02/17 05:45:49;;;;;;;27.75;18.77;;;9.60;99.90;;;;;;5049929;28;20047;-48
2023/02/17 05:48:15;;;;;;;24.13;17.85;;;9.60;99.90;;;;;;5049974;28;20446;-49
2023/02/17 05:50:40;;;;;;;28.00;17.23;;;9.70;99.90;;;;;;5065685;28;20067;-48
2023/02/17 05:53:06;;;;;;;29.98;19.02;;;9.70;99.90;;;;;;5049823;28;20021;-49
2023/02/17 05:55:31;;;;;;;26.38;17.98;;;9.70;99.90;;;;;;5050287;28;20051;-48
2023/02/17 05:57:57;;;;;;;26.08;17.92;;;9.60;99.90;;;;;;5050105;28;20436;-48
2023/02/17 06:00:23;;;;;;;26.30;18.48;;;9.60;99.90;;;;;;5048299;28;20051;-47
2023/02/17 06:02:48;;;;;;;25.65;18.35;;;9.60;99.90;;;;;;5048275;28;20029;-48
2023/02/17 06:05:14;;;;;;;26.35;18.20;;;9.60;99.90;;;;;;5046932;28;20385;-50
2023/02/17 06:07:40;;;;;;;25.48;18.17;;;9.60;99.90;;;;;;5048792;28;20031;-47
2023/02/17 06:10:07;;;;;;;25.80;18.08;;;9.60;99.90;;;;;;5049193;28;20480;-49
2023/02/17 06:12:33;;;;;;;27.77;19.80;;;9.50;99.90;;;;;;5049027;28;20480;-48
2023/02/17 06:14:58;;;;;;;28.13;18.25;;;9.50;99.90;;;;;;5048520;28;20060;-48
2023/02/17 06:17:24;;;;;;;27.23;18.67;;;9.60;99.90;;;;;;5050257;28;20021;-49
2023/02/17 06:19:49;;;;;;;25.48;18.27;;;9.50;99.90;;;;;;5050029;28;20101;-49
2023/02/17 06:22:15;;;;;;;27.70;18.23;;;9.50;99.90;;;;;;5049252;28;20029;-49
2023/02/17 06:24:40;;;;;;;27.17;18.50;;;9.50;99.90;;;;;;5050299;28;20025;-49
2023/02/17 06:27:06;;;;;;;31.05;19.52;;;9.50;99.90;;;;;;5050242;28;20036;-48
2023/02/17 06:29:31;;;;;;;31.20;20.02;;;9.50;99.90;;;;;;5050559;28;20032;-47
2023/02/17 06:31:57;;;;;;;29.63;19.05;;;9.50;99.90;;;;;;5049559;28;20052;-47
2023/02/17 06:34:22;;;;;;;35.85;20.70;;;9.40;99.90;;;;;;5047293;28;20025;-49
2023/02/17 06:36:48;;;;;;;26.48;18.38;;;9.50;99.90;;;;;;5062125;28;20446;-51
2023/02/17 06:39:13;;;;;;;30.25;20.30;;;9.50;99.90;;;;;;5063611;28;20118;-48
2023/02/17 06:41:39;;;;;;;28.85;18.45;;;9.50;99.90;;;;;;5064149;28;20388;-48
2023/02/17 06:44:04;;;;;;;28.92;18.75;;;9.50;99.90;;;;;;5049682;28;20479;-48
2023/02/17 06:46:30;;;;;;;24.10;17.77;;;9.50;99.90;;;;;;5049661;28;20056;-47
2023/02/17 06:48:56;;;;;;;27.10;18.08;;;9.50;99.90;;;;;;5049701;28;20025;-49
2023/02/17 06:51:21;;;;;;;26.40;18.00;;;9.50;99.90;;;;;;5049143;28;20067;-48
2023/02/17 06:53:47;;;;;;;30.25;19.40;;;9.50;99.90;;;;;;5049190;28;20029;-47
2023/02/17 06:56:12;;;;;;;24.20;16.77;;;9.60;99.90;;;;;;5049322;28;20535;-48
2023/02/17 06:58:38;;;;;;;26.88;16.90;;;9.60;99.90;;;;;;5048220;28;20029;-47
2023/02/17 07:01:04;;;;;;;26.13;17.70;;;9.60;99.90;;;;;;5047739;28;20059;-47
2023/02/17 07:03:30;;;;;;;25.33;17.90;;;9.60;99.90;;;;;;5048193;28;20025;-48
2023/02/17 07:05:57;;;;;;;25.50;17.83;;;9.60;99.90;;;;;;5052103;28;20393;-47
2023/02/17 07:08:23;;;;;;;22.98;16.20;;;9.60;99.90;;;;;;5046135;28;20112;-48
2023/02/17 07:10:49;;;;;;;25.88;17.90;;;9.60;99.90;;;;;;5047865;28;20036;-48
2023/02/17 07:13:15;;;;;;;24.00;16.38;;;9.60;99.90;;;;;;5047850;28;20232;-49
2023/02/17 07:15:40;;;;;;;23.35;16.52;;;9.70;99.90;;;;;;5048200;28;20028;-48
2023/02/17 07:18:06;;;;;;;23.42;16.00;;;9.70;99.90;;;;;;5047833;28;20524;-48
2023/02/17 07:20:32;;;;;;;31.00;17.42;;;9.80;99.90;;;;;;5047988;28;20511;-49
2023/02/17 07:22:59;;;;;;;23.02;16.33;;;9.90;99.90;;;;;;5047563;28;20232;-51
2023/02/17 07:25:24;;;;;;;25.67;17.10;;;9.90;99.90;;;;;;5048404;28;20433;-49
2023/02/17 07:27:50;;;;;;;23.45;16.48;;;9.80;99.90;;;;;;5045877;28;20182;-50
2023/02/17 07:30:16;;;;;;;23.55;16.55;;;9.90;99.90;;;;;;5047614;28;20504;-50
2023/02/17 07:32:42;;;;;;;25.98;15.63;;;10.00;99.90;;;;;;5047634;28;20094;-47
2023/02/17 07:35:08;;;;;;;25.35;16.83;;;10.00;99.90;;;;;;5048143;28;20067;-48
2023/02/17 07:37:33;;;;;;;22.85;15.68;;;10.00;99.90;;;;;;5047712;28;20017;-51
2023/02/17 07:39:59;;;;;;;28.20;16.52;;;10.00;99.90;;;;;;5048079;28;20415;-48
2023/02/17 07:42:27;;;;;;;21.45;15.75;;;10.00;99.90;;;;;;5047950;28;20365;-48
2023/02/17 07:44:52;;;;;;;26.10;17.00;;;10.00;99.90;;;;;;5048849;28;20037;-48
2023/02/17 07:47:18;;;;;;;25.88;17.23;;;10.00;99.90;;;;;;5048657;28;20400;-47
2023/02/17 07:49:43;;;;;;;25.95;17.85;;;10.00;99.90;;;;;;5049135;28;20025;-49
2023/02/17 07:52:09;;;;;;;28.63;18.45;;;10.00;99.90;;;;;;5047858;28;20029;-48
2023/02/17 07:54:35;;;;;;;27.50;18.77;;;10.00;99.90;;;;;;5048360;28;20036;-49
2023/02/17 07:57:01;;;;;;;26.42;18.40;;;10.10;99.90;;;;;;5048929;28;20428;-47
2023/02/17 07:59:27;;;;;;;26.45;17.23;;;10.10;99.90;;;;;;5046998;28;20027;-46
2023/02/17 08:01:53;;;;;;;25.33;18.23;;;10.10;99.90;;;;;;5047982;28;20018;-47
2023/02/17 08:04:18;;;;;;;27.33;18.42;;;10.10;99.90;;;;;;5047937;28;20084;-47
2023/02/17 08:06:44;;;;;;;28.48;18.63;;;10.10;99.90;;;;;;5048372;28;20033;-47
2023/02/17 08:14:38;;;;;;;28.85;19.73;;;10.10;99.90;;;;;;5052328;28;20518;-48
2023/02/17 08:17:04;;;;;;;33.53;20.95;;;10.10;99.90;;;;;;5052462;28;20116;-49
2023/02/17 08:19:30;;;;;;;28.25;19.60;;;10.10;99.90;;;;;;5067702;28;20029;-48
2023/02/17 08:21:56;;;;;;;31.52;20.33;;;10.10;99.90;;;;;;5051912;28;20047;-47
2023/02/17 08:24:21;;;;;;;31.38;19.80;;;10.20;99.90;;;;;;5051931;28;20373;-48
2023/02/17 08:26:48;;;;;;;30.25;19.48;;;10.20;99.90;;;;;;5052148;28;20029;-48
2023/02/17 08:29:14;;;;;;;27.80;19.40;;;10.30;99.90;;;;;;5052250;28;20025;-47
2023/02/17 08:31:40;;;;;;;33.72;21.63;;;10.30;99.90;;;;;;5052095;28;20048;-47
2023/02/17 08:34:09;;;;;;;29.48;19.23;;;10.30;99.90;;;;;;5050917;28;20492;-48
2023/02/17 08:36:38;;;;;;;29.75;18.27;;;10.40;99.90;;;;;;5052217;28;20029;-49
2023/02/17 08:39:08;;;;;;;29.08;17.98;;;10.50;99.90;;;;;;5051620;28;20027;-48
2023/02/17 08:41:36;;;;;;;24.83;16.77;;;10.50;99.90;;;;;;5051433;28;20036;-48
2023/02/17 08:44:08;;;;;;;29.20;18.42;;;10.60;99.90;;;;;;5052166;28;20025;-49
2023/02/17 08:46:35;;;;;;;24.48;17.15;;;10.70;99.90;;;;;;5050946;28;20021;-48
2023/02/17 08:49:01;;;;;;;24.75;16.60;;;10.70;99.90;;;;;;5051934;28;20017;-48
2023/02/17 08:51:27;;;;;;;22.92;15.05;;;10.80;99.90;;;;;;5066584;28;20093;-48
2023/02/17 08:53:54;;;;;;;22.17;14.98;;;10.90;99.90;;;;;;5051886;28;20033;-48
2023/02/17 08:56:21;;;;;;;20.15;14.60;;;10.90;99.90;;;;;;5051315;28;20056;-47
2023/02/17 08:58:47;;;;;;;23.23;14.60;;;11.00;99.90;;;;;;5051348;28;20024;-49
2023/02/17 09:01:13;;;;;;;18.80;14.23;;;11.00;99.90;;;;;;5065927;28;20086;-48
2023/02/17 09:03:39;;;;;;;25.45;14.13;;;11.10;99.90;;;;;;5051433;28;20029;-51
2023/02/17 09:06:06;;;;;;;17.52;12.98;;;11.10;99.90;;;;;;5051062;28;20025;-49
2023/02/17 09:08:32;;;;;;;18.17;13.52;;;11.10;99.90;;;;;;5050621;28;20067;-49
2023/02/17 09:10:58;;;;;;;20.90;13.25;;;11.20;99.90;;;;;;5066101;28;20108;-48
2023/02/17 09:13:25;;;;;;;18.08;12.23;;;11.20;99.90;;;;;;5050701;28;20025;-48
2023/02/17 09:15:52;;;;;;;19.70;12.82;;;11.20;99.90;;;;;;5051266;28;20020;-48
2023/02/17 09:18:20;;;;;;;16.42;12.07;;;11.30;99.90;;;;;;5051089;28;20485;-47
2023/02/17 09:20:45;;;;;;;20.00;12.43;;;11.40;99.90;;;;;;5049395;28;20028;-50
2023/02/17 09:23:11;;;;;;;16.98;12.40;;;11.40;99.90;;;;;;5049085;28;20104;-48
2023/02/17 09:25:37;;;;;;;17.77;12.07;;;11.40;99.90;;;;;;5050012;28;20469;-49
2023/02/17 09:28:02;;;;;;;18.38;11.75;;;11.40;99.90;;;;;;5050076;28;20492;-50
2023/02/17 09:30:29;;;;;;;17.13;11.57;;;11.40;99.90;;;;;;5065199;28;20214;-48
2023/02/17 09:32:54;;;;;;;18.23;12.75;;;11.40;99.90;;;;;;5050037;28;20487;-48
2023/02/17 09:35:20;;;;;;;16.52;11.93;;;11.50;99.90;;;;;;5049739;28;20029;-48
2023/02/17 09:37:45;;;;;;;17.65;11.38;;;11.50;99.90;;;;;;5049170;28;20052;-48
2023/02/17 09:40:24;;;;;;;16.02;11.18;;;11.60;99.90;;;;;;5049467;28;20033;-49
2023/02/17 09:42:50;;;;;;;16.05;12.60;;;11.60;99.90;;;;;;5062569;28;20117;-49
2023/02/17 09:45:21;;;;;;;18.73;12.00;;;11.60;99.90;;;;;;5049436;28;20109;-49
2023/02/17 09:47:53;;;;;;;14.65;11.15;;;11.70;99.90;;;;;;5052645;28;20036;-47
2023/02/17 09:50:28;;;;;;;15.63;11.82;;;11.70;99.90;;;;;;5047444;28;20044;-48
2023/02/17 09:53:21;;;;;;;16.15;11.80;;;11.70;99.90;;;;;;5049925;28;20456;-49
2023/02/17 09:55:53;;;;;;;15.43;11.15;;;11.70;99.90;;;;;;5050779;28;20029;-47
2023/02/17 09:58:26;;;;;;;16.70;11.90;;;11.60;99.90;;;;;;5051219;28;20025;-49
2023/02/17 10:00:57;;;;;;;14.18;10.73;;;11.60;99.90;;;;;;5050654;28;20021;-48
2023/02/17 10:03:29;;;;;;;;;;;11.70;99.90;;;;;;5050941;28;20206;-48
2023/02/17 10:06:01;;;;;;;14.00;10.55;;;11.70;99.90;;;;;;5050708;28;19912;-49
2023/02/17 10:08:33;;;;;;;13.85;10.75;;;11.80;99.90;;;;;;5049898;28;20047;-49
2023/02/17 10:11:22;;;;;;;15.00;11.13;;;11.80;99.90;;;;;;5050098;28;20079;-48
2023/02/17 10:13:49;;;;;;;13.00;9.98;;;11.80;99.90;;;;;;5050277;28;20102;-48
2023/02/17 10:16:22;;;;;;;13.77;10.35;;;11.90;99.90;;;;;;5049210;28;20017;-50
2023/02/17 10:18:59;;;;;;;14.52;10.13;;;11.90;99.90;;;;;;5049051;28;20229;-48
2023/02/17 10:21:38;;;;;;;12.90;10.07;;;11.80;99.90;;;;;;5049629;28;20648;-51
2023/02/17 10:24:03;;;;;;;14.57;10.18;;;11.90;99.90;;;;;;5049993;28;20028;-48
2023/02/17 10:26:56;;;;;;;11.43;9.52;;;12.00;99.90;;;;;;5050013;28;20033;-50
2023/02/17 10:29:51;;;;;;;14.82;10.02;;;12.00;99.90;;;;;;5049947;28;20028;-49
2023/02/17 10:32:25;;;;;;;12.73;9.75;;;12.10;99.90;;;;;;5049288;28;20021;-50
2023/02/17 10:35:06;;;;;;;15.27;10.52;;;12.10;99.90;;;;;;5064595;28;20036;-48
2023/02/17 10:38:08;;;;;;;12.07;9.38;;;12.10;99.90;;;;;;5049729;28;20017;-48
2023/02/17 10:40:34;;;;;;;14.15;9.27;;;12.10;99.90;;;;;;5018318;28;20036;-50
2023/02/17 10:43:02;;;;;;;12.20;9.73;;;12.20;99.90;;;;;;5049614;28;20029;-47
2023/02/17 10:45:41;;;;;;;13.90;9.75;;;12.20;99.90;;;;;;5049835;28;20459;-49
2023/02/17 10:48:21;;;;;;;12.13;9.88;;;12.20;99.90;;;;;;5049689;28;20021;-49
2023/02/17 10:50:47;;;;;;;12.93;9.97;;;12.20;99.90;;;;;;5049355;28;20017;-48
2023/02/17 10:53:21;;;;;;;13.65;9.35;;;12.30;99.90;;;;;;5064669;28;20021;-49
2023/02/17 10:56:05;;;;;;;13.15;9.00;;;12.30;99.90;;;;;;5050069;28;20021;-49
2023/02/17 10:58:45;;;;;;;12.15;9.50;;;12.30;99.90;;;;;;5050186;28;20490;-50
2023/02/17 11:01:12;;;;;;;17.60;9.55;;;12.30;99.90;;;;;;5047901;28;20518;-48
2023/02/17 11:03:39;;;;;;;11.82;9.25;;;12.30;99.90;;;;;;5049095;28;20072;-49
2023/02/17 11:06:15;;;;;;;13.88;10.38;;;12.40;99.90;;;;;;5049304;28;20066;-50
2023/02/17 11:08:58;;;;;;;14.55;10.35;;;12.40;99.90;;;;;;5049253;28;20381;-51
2023/02/17 11:11:26;;;;;;;16.35;10.38;;;12.40;99.90;;;;;;5048672;28;20021;-49
2023/02/17 11:14:02;;;;;;;19.25;12.75;;;12.40;99.90;;;;;;5049225;28;20021;-49
2023/02/17 11:16:39;;;;;;;13.55;10.75;;;12.40;99.90;;;;;;5049247;28;20021;-47
2023/02/17 11:19:17;;;;;;;18.45;11.13;;;12.40;99.90;;;;;;5049068;28;20020;-48
2023/02/17 11:21:43;;;;;;;13.57;10.93;;;12.40;99.90;;;;;;5048700;28;20033;-48
2023/02/17 11:24:12;;;;;;;19.23;12.32;;;12.30;99.90;;;;;;5049012;28;20074;-48
2023/02/17 11:26:38;;;;;;;16.30;11.70;;;12.30;99.90;;;;;;5049214;28;20108;-48
2023/02/17 11:29:19;;;;;;;17.63;12.75;;;12.30;99.90;;;;;;5049086;28;20060;-50
2023/02/17 11:31:54;;;;;;;15.60;11.10;;;12.30;99.90;;;;;;5048525;28;20049;-48
2023/02/17 11:34:23;;;;;;;16.15;11.02;;;12.20;99.90;;;;;;5064061;28;20021;-48
2023/02/17 11:36:58;;;;;;;16.27;10.90;;;12.30;99.90;;;;;;5048760;28;20032;-48
2023/02/17 11:39:24;;;;;;;15.85;11.57;;;12.40;99.90;;;;;;5048305;28;20384;-49
2023/02/17 11:41:49;;;;;;;15.98;11.35;;;12.40;99.90;;;;;;5048101;28;20029;-47
2023/02/17 11:44:26;;;;;;;14.48;12.00;;;12.50;99.90;;;;;;5048053;28;20037;-51
2023/02/17 11:47:04;;;;;;;15.13;11.63;;;12.50;99.90;;;;;;5046602;28;20075;-49
2023/02/17 11:49:43;;;;;;;15.48;12.00;;;12.50;99.90;;;;;;5046434;28;20021;-48
2023/02/17 11:52:26;;;;;;;15.43;11.25;;;12.50;99.90;;;;;;5046234;28;20299;-48
2023/02/17 11:55:14;;;;;;;16.08;11.60;;;12.40;99.90;;;;;;5043769;28;20225;-48
2023/02/17 11:57:43;;;;;;;16.77;11.95;;;12.50;99.90;;;;;;5048733;28;20033;-48
2023/02/17 12:00:14;;;;;;;15.30;11.95;;;12.50;99.90;;;;;;5048329;28;20018;-51
2023/02/17 12:02:44;;;;;;;16.23;11.35;;;12.50;99.90;;;;;;5047932;28;20032;-48
2023/02/17 12:05:22;;;;;;;20.45;11.98;;;12.50;99.90;;;;;;5048355;28;20036;-50
2023/02/17 12:07:57;;;;;;;16.92;11.50;;;12.60;99.90;;;;;;5047223;28;20301;-51
2023/02/17 12:10:41;;;;;;;16.58;11.02;;;12.70;99.90;;;;;;5048189;28;20025;-48
2023/02/17 12:13:36;;;;;;;17.45;11.02;;;12.80;99.90;;;;;;5047707;28;20017;-50
2023/02/17 12:16:15;;;;;;;15.75;10.95;;;12.80;99.90;;;;;;5048096;28;20391;-48
2023/02/17 12:19:11;;;;;;;14.93;11.30;;;12.80;99.90;;;;;;5047605;28;20031;-47
2023/02/17 12:22:06;;;;;;;14.85;10.77;;;12.90;99.90;;;;;;5047689;28;20495;-47
2023/02/17 12:25:16;;;;;;;15.18;11.27;;;12.90;99.90;;;;;;5048146;28;20040;-47
2023/02/17 12:28:13;;;;;;;14.60;11.07;;;13.00;99.90;;;;;;5048324;28;20033;-50
2023/02/17 12:30:50;;;;;;;14.25;10.73;;;13.10;99.90;;;;;;5042795;28;20086;-48
2023/02/17 12:33:36;;;;;;;15.25;11.35;;;13.00;99.90;;;;;;5046543;28;20033;-50
2023/02/17 12:36:09;;;;;;;15.52;11.57;;;13.00;99.90;;;;;;5049108;28;20410;-47
2023/02/17 12:38:42;;;;;;;14.60;10.63;;;13.10;99.90;;;;;;5048061;28;20100;-48
2023/02/17 12:41:16;;;;;;;15.70;10.93;;;13.00;99.90;;;;;;5047654;28;20032;-47
2023/02/17 12:44:02;;;;;;;15.50;11.40;;;13.00;99.90;;;;;;5048091;28;20040;-47
2023/02/17 12:46:50;;;;;;;18.65;11.68;;;13.00;99.90;;;;;;5048152;28;20056;-50
2023/02/17 12:49:33;;;;;;;17.70;11.82;;;13.00;99.90;;;;;;5063609;28;20171;-47
2023/02/17 12:52:09;;;;;;;22.15;11.70;;;13.00;99.90;;;;;;5047519;28;20068;-47